Time;durP1;ratioP1;P1;durP2;ratioP2;P2;SDS_P1;SDS_P2;PMS_P1;PMS_P2;Temp;Humidity;BMP_temperature;BMP_pressure;BME280_temperature;BME280_humidity;BME280_pressure;Samples;Min_cycle;Max_cycle;Signal;HPM_P1;HPM_P2
2021/01/25 00:00:09;;;;;;;1.13;1.13;;;;;;;;;;5046317;28;20457;-64
2021/01/25 00:02:35;;;;;;;0.98;0.98;;;;;;;;;;5046877;28;20290;-64
2021/01/25 00:05:01;;;;;;;1.17;0.85;;;;;;;;;;5046895;28;20191;-65
2021/01/25 00:07:27;;;;;;;3.92;3.65;;;;;;;;;;5046703;28;20175;-64
2021/01/25 00:09:55;;;;;;;3.22;1.38;;;;;;;;;;5047850;28;20218;-65
2021/01/25 00:12:21;;;;;;;1.42;1.33;;;;;;;;;;5045869;28;20186;-65
2021/01/25 00:14:47;;;;;;;0.85;0.85;;;;;;;;;;5040959;28;20173;-65
2021/01/25 00:17:13;;;;;;;0.80;0.80;;;;;;;;;;5034370;28;20544;-65
2021/01/25 00:19:39;;;;;;;1.63;1.53;;;;;;;;;;5034123;28;20204;-65
2021/01/25 00:22:05;;;;;;;0.80;0.80;;;;;;;;;;5034286;28;20410;-65
2021/01/25 00:24:31;;;;;;;0.90;0.90;;;;;;;;;;5034257;28;20563;-65
2021/01/25 00:26:57;;;;;;;0.60;0.60;;;;;;;;;;5034240;28;20404;-65
2021/01/25 00:29:22;;;;;;;0.65;0.65;;;;;;;;;;5033911;28;20443;-64
2021/01/25 00:31:49;;;;;;;1.20;1.20;;;;;;;;;;5034103;28;20184;-65
2021/01/25 00:34:14;;;;;;;1.25;1.25;;;;;;;;;;5034276;28;20532;-65
2021/01/25 00:36:40;;;;;;;1.10;1.10;;;;;;;;;;5039587;28;20172;-65
2021/01/25 00:39:06;;;;;;;1.13;1.02;;;;;;;;;;5042920;28;20426;-65
2021/01/25 00:41:33;;;;;;;0.90;0.90;;;;;;;;;;5043266;28;20203;-65
2021/01/25 00:43:58;;;;;;;1.05;1.02;;;;;;;;;;5044582;28;20586;-65
2021/01/25 00:46:25;;;;;;;0.77;0.77;;;;;;;;;;5042650;28;20177;-65
2021/01/25 00:48:51;;;;;;;0.85;0.85;;;;;;;;;;5042941;28;20450;-65
2021/01/25 00:51:17;;;;;;;7.15;2.78;;;;;;;;;;5042949;28;20268;-65
2021/01/25 00:53:43;;;;;;;3.03;1.38;;;;;;;;;;5042446;28;20177;-65
2021/01/25 00:56:11;;;;;;;0.70;0.70;;;;;;;;;;5043504;28;20206;-65
2021/01/25 00:58:37;;;;;;;0.68;0.68;;;;;;;;;;5044183;28;20498;-64
2021/01/25 01:01:03;;;;;;;0.70;0.70;;;;;;;;;;5041771;28;20280;-64
2021/01/25 01:03:29;;;;;;;0.70;0.70;;;;;;;;;;5043267;28;20469;-65
2021/01/25 01:05:55;;;;;;;1.65;1.63;;;;;;;;;;5043720;28;20208;-64
2021/01/25 01:08:21;;;;;;;0.77;0.77;;;;;;;;;;5041839;28;20267;-64
2021/01/25 01:10:47;;;;;;;1.70;1.63;;;;;;;;;;5058363;28;20833;-64
2021/01/25 01:13:13;;;;;;;0.93;0.93;;;;;;;;;;5043259;28;20263;-64
2021/01/25 01:15:39;;;;;;;0.70;0.70;;;;;;;;;;5041678;28;20526;-65
2021/01/25 01:18:05;;;;;;;0.90;0.90;;;;;;;;;;5040747;28;20199;-64
2021/01/25 01:20:31;;;;;;;0.85;0.85;;;;;;;;;;5032799;28;20480;-64
2021/01/25 01:22:57;;;;;;;2.20;2.10;;;;;;;;;;5033468;28;20676;-64
2021/01/25 01:25:23;;;;;;;0.82;0.82;;;;;;;;;;5032004;28;20175;-64
2021/01/25 01:27:49;;;;;;;1.20;1.20;;;;;;;;;;5033168;28;20185;-64
2021/01/25 01:30:15;;;;;;;0.60;0.60;;;;;;;;;;5032630;28;20216;-64
2021/01/25 01:32:42;;;;;;;0.60;0.60;;;;;;;;;;5032983;28;20637;-64
2021/01/25 01:35:08;;;;;;;0.80;0.80;;;;;;;;;;5033016;28;20211;-64
2021/01/25 01:37:35;;;;;;;0.90;0.90;;;;;;;;;;5032905;28;20183;-64
2021/01/25 01:40:02;;;;;;;0.80;0.80;;;;;;;;;;5032516;28;20207;-64
2021/01/25 01:42:28;;;;;;;1.23;1.23;;;;;;;;;;5031656;28;20180;-64
2021/01/25 01:44:54;;;;;;;0.90;0.90;;;;;;;;;;5032747;28;20180;-64
2021/01/25 01:47:21;;;;;;;2.58;1.13;;;;;;;;;;5032764;28;20418;-64
2021/01/25 01:49:47;;;;;;;0.90;0.90;;;;;;;;;;5032464;28;20606;-64
2021/01/25 01:52:15;;;;;;;1.75;1.65;;;;;;;;;;5032666;28;20164;-65
2021/01/25 01:54:41;;;;;;;1.35;1.27;;;;;;;;;;5032597;28;20208;-65
2021/01/25 01:57:07;;;;;;;0.70;0.70;;;;;;;;;;5032353;28;20204;-65
2021/01/25 01:59:33;;;;;;;0.95;0.95;;;;;;;;;;5051491;28;20288;-63
2021/01/25 02:01:59;;;;;;;1.08;1.08;;;;;;;;;;5063200;28;20225;-66
2021/01/25 02:04:26;;;;;;;1.95;1.05;;;;;;;;;;5031195;28;20188;-62
2021/01/25 02:06:54;;;;;;;1.35;1.35;;;;;;;;;;5042911;28;20661;-63
2021/01/25 02:09:20;;;;;;;1.90;1.80;;;;;;;;;;5033780;28;20199;-62
2021/01/25 02:11:46;;;;;;;1.02;1.02;;;;;;;;;;5051013;28;20180;-65
2021/01/25 02:14:12;;;;;;;1.75;1.65;;;;;;;;;;5052154;28;20185;-65
2021/01/25 02:16:41;;;;;;;1.00;1.00;;;;;;;;;;5052166;28;20665;-65
2021/01/25 02:19:10;;;;;;;1.13;1.10;;;;;;;;;;5050510;28;20190;-65
2021/01/25 02:21:37;;;;;;;1.65;1.55;;;;;;;;;;5051871;28;20210;-65
2021/01/25 02:24:10;;;;;;;1.50;1.50;;;;;;;;;;5051943;28;20168;-65
2021/01/25 02:26:45;;;;;;;1.13;1.13;;;;;;;;;;5051790;28;20182;-65
2021/01/25 02:29:11;;;;;;;1.73;1.65;;;;;;;;;;5051317;28;20261;-65
2021/01/25 02:31:38;;;;;;;6.82;1.92;;;;;;;;;;5051863;28;20175;-65
2021/01/25 02:34:04;;;;;;;2.00;1.33;;;;;;;;;;5051757;28;20265;-65
2021/01/25 02:36:31;;;;;;;1.35;1.25;;;;;;;;;;5051269;28;20178;-65
2021/01/25 02:38:58;;;;;;;1.20;0.98;;;;;;;;;;5050173;28;20337;-65
2021/01/25 02:41:25;;;;;;;1.88;1.67;;;;;;;;;;5050345;28;20327;-65
2021/01/25 02:43:53;;;;;;;1.00;1.00;;;;;;;;;;5051715;28;20168;-65
2021/01/25 02:46:19;;;;;;;1.17;1.17;;;;;;;;;;5051662;28;20171;-65
2021/01/25 02:48:45;;;;;;;1.35;1.25;;;;;;;;;;5051376;28;20228;-65
2021/01/25 02:51:13;;;;;;;1.35;1.35;;;;;;;;;;5051482;28;20585;-65
2021/01/25 02:53:39;;;;;;;1.65;1.55;;;;;;;;;;5051553;28;20230;-65
2021/01/25 02:56:06;;;;;;;1.17;1.10;;;;;;;;;;5050323;28;20847;-65
2021/01/25 02:58:32;;;;;;;2.80;2.15;;;;;;;;;;5051486;28;20174;-65
2021/01/25 03:00:58;;;;;;;1.02;1.02;;;;;;;;;;5051113;28;20234;-65
2021/01/25 03:03:24;;;;;;;1.02;1.02;;;;;;;;;;5049965;28;20179;-65
2021/01/25 03:05:50;;;;;;;2.05;1.13;;;;;;;;;;5051424;28;20632;-65
2021/01/25 03:08:17;;;;;;;1.90;1.23;;;;;;;;;;5051351;28;20185;-65
2021/01/25 03:10:46;;;;;;;0.80;0.80;;;;;;;;;;5051158;28;20425;-65
2021/01/25 03:13:12;;;;;;;0.70;0.70;;;;;;;;;;5051391;28;20215;-65
2021/01/25 03:15:40;;;;;;;0.70;0.70;;;;;;;;;;5050050;28;20222;-65
2021/01/25 03:18:06;;;;;;;1.17;1.17;;;;;;;;;;5051166;28;20414;-64
2021/01/25 03:20:32;;;;;;;1.10;1.10;;;;;;;;;;5050924;28;20258;-65
2021/01/25 03:22:58;;;;;;;1.00;1.00;;;;;;;;;;5050001;28;20186;-64
2021/01/25 03:25:24;;;;;;;1.02;1.02;;;;;;;;;;5051223;28;20172;-65
2021/01/25 03:27:50;;;;;;;1.55;1.52;;;;;;;;;;5051277;28;20211;-65
2021/01/25 03:30:16;;;;;;;0.65;0.65;;;;;;;;;;5050798;28;20218;-65
2021/01/25 03:32:43;;;;;;;0.73;0.73;;;;;;;;;;5051037;28;20175;-65
2021/01/25 03:35:10;;;;;;;1.27;1.27;;;;;;;;;;5051192;28;20217;-65
2021/01/25 03:37:36;;;;;;;0.98;0.98;;;;;;;;;;5051096;28;20176;-65
2021/01/25 03:40:03;;;;;;;0.60;0.60;;;;;;;;;;5051168;28;20623;-65
2021/01/25 03:42:29;;;;;;;0.93;0.93;;;;;;;;;;5051124;28;20199;-65
2021/01/25 03:44:55;;;;;;;0.65;0.65;;;;;;;;;;5051105;28;20204;-65
2021/01/25 03:47:21;;;;;;;1.05;1.05;;;;;;;;;;5050790;28;20726;-65
2021/01/25 03:49:47;;;;;;;0.70;0.70;;;;;;;;;;5054502;28;20235;-65
2021/01/25 03:52:13;;;;;;;0.70;0.70;;;;;;;;;;5053833;28;20516;-65
2021/01/25 03:54:39;;;;;;;0.70;0.70;;;;;;;;;;5034871;28;20678;-65
2021/01/25 03:57:05;;;;;;;1.13;1.13;;;;;;;;;;5034862;28;20177;-65
2021/01/25 03:59:31;;;;;;;1.52;1.50;;;;;;;;;;5034406;28;20334;-65
2021/01/25 04:01:57;;;;;;;4.60;2.50;;;;;;;;;;5034569;28;20262;-65
2021/01/25 04:04:24;;;;;;;0.70;0.70;;;;;;;;;;5034928;28;20407;-65
2021/01/25 04:06:50;;;;;;;1.05;1.05;;;;;;;;;;5034632;28;20200;-65
2021/01/25 04:09:16;;;;;;;0.60;0.60;;;;;;;;;;5034269;28;20196;-65
2021/01/25 04:11:45;;;;;;;1.25;1.15;;;;;;;;;;5034378;28;20651;-65
2021/01/25 04:14:11;;;;;;;0.50;0.50;;;;;;;;;;5034457;28;20187;-65
2021/01/25 04:16:37;;;;;;;2.45;1.77;;;;;;;;;;5034360;28;20183;-65
2021/01/25 04:19:06;;;;;;;1.13;1.13;;;;;;;;;;5034131;28;20640;-65
2021/01/25 04:21:32;;;;;;;3.15;2.10;;;;;;;;;;5034393;28;20576;-65
2021/01/25 04:23:59;;;;;;;1.35;1.35;;;;;;;;;;5034369;28;20199;-65
2021/01/25 04:26:25;;;;;;;1.30;1.30;;;;;;;;;;5034253;28;20184;-64
2021/01/25 04:28:51;;;;;;;0.93;0.93;;;;;;;;;;5032374;28;20199;-65
2021/01/25 04:31:17;;;;;;;0.75;0.75;;;;;;;;;;5077690;23;20240;-64
2021/01/25 04:33:43;;;;;;;1.23;1.23;;;;;;;;;;5053457;28;20713;-64
2021/01/25 04:36:09;;;;;;;0.70;0.70;;;;;;;;;;5053922;28;20775;-63
2021/01/25 04:38:35;;;;;;;0.60;0.60;;;;;;;;;;5053831;28;20174;-64
2021/01/25 04:41:02;;;;;;;1.23;1.13;;;;;;;;;;5053599;28;20208;-64
2021/01/25 04:43:28;;;;;;;1.50;1.45;;;;;;;;;;5053780;28;20635;-64
2021/01/25 04:45:54;;;;;;;2.38;2.28;;;;;;;;;;5053845;28;20171;-63
2021/01/25 04:48:21;;;;;;;0.60;0.60;;;;;;;;;;5047746;28;20573;-63
2021/01/25 04:50:48;;;;;;;1.50;1.13;;;;;;;;;;5033466;28;20274;-64
2021/01/25 04:53:14;;;;;;;2.80;2.28;;;;;;;;;;5033677;28;20595;-64
2021/01/25 04:55:41;;;;;;;1.75;1.70;;;;;;;;;;5033640;28;20220;-63
2021/01/25 04:58:07;;;;;;;1.30;1.30;;;;;;;;;;5033576;28;20214;-63
2021/01/25 05:00:33;;;;;;;1.70;1.58;;;;;;;;;;5032816;28;20208;-63
2021/01/25 05:03:00;;;;;;;1.60;1.50;;;;;;;;;;5033489;28;20180;-63
2021/01/25 05:05:26;;;;;;;1.13;1.13;;;;;;;;;;5033642;28;20201;-63
2021/01/25 05:07:52;;;;;;;0.75;0.75;;;;;;;;;;5033448;28;20255;-64
2021/01/25 05:10:18;;;;;;;2.27;1.33;;;;;;;;;;5033226;28;20281;-63
2021/01/25 05:12:45;;;;;;;1.80;1.70;;;;;;;;;;5033242;28;20411;-64
2021/01/25 05:15:11;;;;;;;0.95;0.95;;;;;;;;;;5033406;28;20177;-64
2021/01/25 05:17:37;;;;;;;0.50;0.50;;;;;;;;;;5033191;28;20226;-64
2021/01/25 05:20:07;;;;;;;1.45;1.35;;;;;;;;;;5033400;28;20299;-64
2021/01/25 05:22:36;;;;;;;1.13;1.13;;;;;;;;;;5032054;28;20211;-64
2021/01/25 05:25:02;;;;;;;1.70;1.70;;;;;;;;;;5040533;28;20199;-65
2021/01/25 05:27:29;;;;;;;1.25;1.25;;;;;;;;;;5053264;28;20535;-64
2021/01/25 05:30:09;;;;;;;1.20;1.20;;;;;;;;;;5056713;28;20205;-64
2021/01/25 05:32:48;;;;;;;0.90;0.90;;;;;;;;;;5058785;28;20184;-64
2021/01/25 05:35:19;;;;;;;0.60;0.60;;;;;;;;;;5053379;28;20551;-64
2021/01/25 05:37:50;;;;;;;1.15;1.15;;;;;;;;;;5072728;28;20228;-63
2021/01/25 05:40:17;;;;;;;0.95;0.95;;;;;;;;;;5072279;28;20205;-64
2021/01/25 05:42:43;;;;;;;1.30;0.95;;;;;;;;;;5073125;28;20229;-64
2021/01/25 05:45:10;;;;;;;1.08;1.08;;;;;;;;;;5072729;28;20605;-64
2021/01/25 05:47:43;;;;;;;0.70;0.70;;;;;;;;;;5068577;28;20171;-64
2021/01/25 05:50:09;;;;;;;1.52;1.52;;;;;;;;;;5052257;28;20567;-64
2021/01/25 05:52:41;;;;;;;1.17;1.17;;;;;;;;;;5052453;28;20199;-64
2021/01/25 05:55:07;;;;;;;0.98;0.98;;;;;;;;;;5052400;28;20701;-64
2021/01/25 05:57:33;;;;;;;1.65;1.65;;;;;;;;;;5052361;28;20199;-63
2021/01/25 05:59:59;;;;;;;1.30;1.30;;;;;;;;;;5051947;28;20239;-64
2021/01/25 06:02:26;;;;;;;1.17;1.17;;;;;;;;;;5052359;28;20734;-64
2021/01/25 06:04:52;;;;;;;2.05;2.05;;;;;;;;;;5052263;28;20171;-64
2021/01/25 06:07:18;;;;;;;1.73;1.63;;;;;;;;;;5052257;28;20168;-63
2021/01/25 06:09:51;;;;;;;2.93;2.70;;;;;;;;;;5051778;28;20483;-64
2021/01/25 06:12:21;;;;;;;0.95;0.95;;;;;;;;;;5051782;28;20504;-64
2021/01/25 06:15:02;;;;;;;1.30;1.30;;;;;;;;;;5051940;28;20172;-64
2021/01/25 06:17:30;;;;;;;1.00;1.00;;;;;;;;;;5052045;28;20539;-64
2021/01/25 06:19:56;;;;;;;0.50;0.50;;;;;;;;;;5051589;28;20253;-64
2021/01/25 06:22:22;;;;;;;2.00;0.97;;;;;;;;;;5051899;28;20210;-63
2021/01/25 06:24:48;;;;;;;1.70;1.58;;;;;;;;;;5055651;28;20510;-64
2021/01/25 06:27:15;;;;;;;1.90;1.02;;;;;;;;;;5051646;28;20194;-63
2021/01/25 06:29:41;;;;;;;0.50;0.50;;;;;;;;;;5051249;28;20187;-64
2021/01/25 06:32:10;;;;;;;0.98;0.98;;;;;;;;;;5051837;28;20207;-63
2021/01/25 06:34:37;;;;;;;1.90;1.20;;;;;;;;;;5051680;28;20555;-63
2021/01/25 06:37:04;;;;;;;1.23;1.23;;;;;;;;;;5051605;28;20635;-63
2021/01/25 06:39:31;;;;;;;0.80;0.80;;;;;;;;;;5051358;28;20396;-62
2021/01/25 06:42:01;;;;;;;1.00;1.00;;;;;;;;;;5051672;28;20171;-63
2021/01/25 06:44:29;;;;;;;1.15;1.13;;;;;;;;;;5051633;28;20164;-63
2021/01/25 06:46:56;;;;;;;1.02;1.02;;;;;;;;;;5051512;28;20175;-63
2021/01/25 06:49:22;;;;;;;0.60;0.60;;;;;;;;;;5051373;28;20254;-64
2021/01/25 06:51:48;;;;;;;0.73;0.73;;;;;;;;;;5051509;28;20547;-62
2021/01/25 06:54:14;;;;;;;1.83;1.83;;;;;;;;;;5051529;28;20543;-64
2021/01/25 06:56:43;;;;;;;3.00;2.90;;;;;;;;;;5051438;28;20180;-63
2021/01/25 06:59:10;;;;;;;1.67;1.58;;;;;;;;;;5051278;28;20716;-62
2021/01/25 07:01:36;;;;;;;0.70;0.70;;;;;;;;;;5051057;28;20210;-65
2021/01/25 07:04:02;;;;;;;1.40;0.85;;;;;;;;;;5051382;28;20182;-64
2021/01/25 07:06:35;;;;;;;1.20;1.20;;;;;;;;;;5050080;28;20205;-63
2021/01/25 07:09:03;;;;;;;0.90;0.90;;;;;;;;;;5051113;28;20171;-63
2021/01/25 07:11:29;;;;;;;0.70;0.70;;;;;;;;;;5051257;28;20234;-63
2021/01/25 07:13:55;;;;;;;1.33;1.33;;;;;;;;;;5051231;28;20222;-63
2021/01/25 07:16:23;;;;;;;0.88;0.88;;;;;;;;;;5051133;28;20615;-63
2021/01/25 07:18:49;;;;;;;2.05;1.95;;;;;;;;;;5051119;28;20176;-63
2021/01/25 07:21:17;;;;;;;1.52;1.52;;;;;;;;;;5051141;28;20217;-63
2021/01/25 07:23:44;;;;;;;0.70;0.70;;;;;;;;;;5054408;28;20171;-63
2021/01/25 07:26:14;;;;;;;1.17;1.17;;;;;;;;;;5035308;28;20836;-63
2021/01/25 07:28:41;;;;;;;1.27;1.27;;;;;;;;;;5035163;28;20177;-63
2021/01/25 07:31:07;;;;;;;1.08;1.08;;;;;;;;;;5034834;28;20204;-63
2021/01/25 07:33:33;;;;;;;0.68;0.68;;;;;;;;;;5035038;28;20234;-63
2021/01/25 07:35:59;;;;;;;2.35;2.25;;;;;;;;;;5035180;28;20181;-63
2021/01/25 07:38:28;;;;;;;4.10;1.95;;;;;;;;;;5035046;28;20203;-63
2021/01/25 07:40:57;;;;;;;1.15;1.15;;;;;;;;;;5034570;28;20771;-63
2021/01/25 07:43:24;;;;;;;2.80;2.60;;;;;;;;;;5034846;28;20704;-63
2021/01/25 07:45:51;;;;;;;0.60;0.60;;;;;;;;;;5034997;28;20177;-63
2021/01/25 07:48:18;;;;;;;1.10;1.10;;;;;;;;;;5034886;28;20169;-63
2021/01/25 07:50:53;;;;;;;1.20;1.20;;;;;;;;;;5034562;28;20220;-64
2021/01/25 07:53:19;;;;;;;0.80;0.80;;;;;;;;;;5034829;28;20176;-63
2021/01/25 07:55:45;;;;;;;1.33;1.33;;;;;;;;;;5034643;28;20180;-63
2021/01/25 07:58:12;;;;;;;1.67;1.55;;;;;;;;;;5034661;28;20177;-64
2021/01/25 08:00:40;;;;;;;0.93;0.93;;;;;;;;;;5039900;28;20205;-64
2021/01/25 08:03:06;;;;;;;0.80;0.80;;;;;;;;;;5034655;28;20188;-64
2021/01/25 08:05:33;;;;;;;1.47;1.47;;;;;;;;;;5047143;28;20536;-64
2021/01/25 08:08:02;;;;;;;0.93;0.93;;;;;;;;;;5040357;28;20438;-64
2021/01/25 08:10:30;;;;;;;2.38;2.28;;;;;;;;;;5041872;28;20218;-64
2021/01/25 08:12:56;;;;;;;1.90;1.80;;;;;;;;;;5054304;28;20176;-64
2021/01/25 08:15:29;;;;;;;2.33;2.13;;;;;;;;;;5042122;28;20254;-64
2021/01/25 08:17:57;;;;;;;1.65;1.65;;;;;;;;;;5034438;28;20181;-63
2021/01/25 08:20:24;;;;;;;0.85;0.85;;;;;;;;;;5045943;28;20200;-63
2021/01/25 08:23:12;;;;;;;3.60;2.17;;;;;;;;;;5034070;28;20186;-64
2021/01/25 08:25:38;;;;;;;1.27;1.23;;;;;;;;;;5033020;28;20518;-64
2021/01/25 08:28:15;;;;;;;0.70;0.70;;;;;;;;;;5050915;28;20168;-65
2021/01/25 08:30:43;;;;;;;1.60;1.55;;;;;;;;;;5034337;28;20269;-64
2021/01/25 08:33:10;;;;;;;0.60;0.60;;;;;;;;;;5033518;28;20198;-63
2021/01/25 08:35:37;;;;;;;0.77;0.77;;;;;;;;;;5047326;28;20280;-64
2021/01/25 08:38:23;;;;;;;1.17;1.17;;;;;;;;;;5048483;28;20183;-64
2021/01/25 08:40:49;;;;;;;14.98;1.88;;;;;;;;;;5052936;28;20688;-64
2021/01/25 08:43:19;;;;;;;0.88;0.88;;;;;;;;;;5040545;28;20181;-64
2021/01/25 08:45:45;;;;;;;0.90;0.90;;;;;;;;;;5033145;28;20176;-63
2021/01/25 08:48:12;;;;;;;0.80;0.80;;;;;;;;;;5038287;28;20664;-64
2021/01/25 08:50:38;;;;;;;0.93;0.93;;;;;;;;;;5033089;28;20676;-64
2021/01/25 08:53:06;;;;;;;0.85;0.85;;;;;;;;;;5051668;28;20183;-64
2021/01/25 08:55:39;;;;;;;1.08;1.08;;;;;;;;;;5049633;28;20576;-64
2021/01/25 08:58:16;;;;;;;0.70;0.70;;;;;;;;;;5043491;28;20248;-63
2021/01/25 09:00:43;;;;;;;1.42;1.27;;;;;;;;;;5052522;28;20208;-65
2021/01/25 09:03:11;;;;;;;1.05;1.05;;;;;;;;;;5050909;28;20168;-65
2021/01/25 09:05:37;;;;;;;6.88;3.00;;;;;;;;;;5047295;28;20546;-64
2021/01/25 09:08:04;;;;;;;1.13;1.13;;;;;;;;;;5051974;28;20609;-64
2021/01/25 09:10:30;;;;;;;1.60;1.33;;;;;;;;;;5051035;28;20745;-64
2021/01/25 09:12:56;;;;;;;1.90;1.70;;;;;;;;;;5050826;28;20698;-64
2021/01/25 09:15:23;;;;;;;0.70;0.70;;;;;;;;;;5037691;28;20301;-64
2021/01/25 09:17:49;;;;;;;0.95;0.95;;;;;;;;;;5039330;28;20188;-64
2021/01/25 09:20:15;;;;;;;2.28;2.17;;;;;;;;;;5050263;28;20705;-64
2021/01/25 09:22:41;;;;;;;0.90;0.90;;;;;;;;;;5050988;28;20196;-64
2021/01/25 09:25:08;;;;;;;1.00;1.00;;;;;;;;;;5040830;28;20199;-64
2021/01/25 09:27:35;;;;;;;1.13;1.13;;;;;;;;;;5048913;28;20419;-64
2021/01/25 09:30:01;;;;;;;0.82;0.82;;;;;;;;;;5038663;28;20231;-64
2021/01/25 09:32:27;;;;;;;1.40;1.40;;;;;;;;;;5047405;28;20207;-64
2021/01/25 09:34:54;;;;;;;2.30;1.55;;;;;;;;;;5050808;28;20207;-64
2021/01/25 09:37:20;;;;;;;2.17;1.52;;;;;;;;;;5045742;28;20181;-63
2021/01/25 09:39:46;;;;;;;0.80;0.80;;;;;;;;;;5032007;28;20201;-63
2021/01/25 09:42:12;;;;;;;1.60;1.50;;;;;;;;;;5032773;28;20177;-62
2021/01/25 09:44:38;;;;;;;0.68;0.68;;;;;;;;;;5032227;28;20687;-63
2021/01/25 09:47:05;;;;;;;0.60;0.60;;;;;;;;;;5044470;28;20190;-63
2021/01/25 09:49:31;;;;;;;0.60;0.60;;;;;;;;;;5043474;28;20663;-63
2021/01/25 09:51:57;;;;;;;1.17;1.13;;;;;;;;;;5051500;28;20172;-63
2021/01/25 09:54:23;;;;;;;1.35;1.10;;;;;;;;;;5050173;28;20690;-63
2021/01/25 09:56:49;;;;;;;1.67;1.60;;;;;;;;;;5052046;28;20184;-63
2021/01/25 09:59:15;;;;;;;0.60;0.60;;;;;;;;;;5042588;28;20407;-63
2021/01/25 10:01:42;;;;;;;1.02;1.02;;;;;;;;;;5048181;28;20250;-63
2021/01/25 10:04:08;;;;;;;0.82;0.82;;;;;;;;;;5044250;28;20181;-63
2021/01/25 10:06:34;;;;;;;1.00;1.00;;;;;;;;;;5051675;28;20693;-64
2021/01/25 10:09:00;;;;;;;0.93;0.93;;;;;;;;;;5049256;28;20180;-63
2021/01/25 10:11:26;;;;;;;1.95;1.90;;;;;;;;;;5051239;28;20466;-63
2021/01/25 10:13:52;;;;;;;0.80;0.80;;;;;;;;;;5037960;28;20691;-63
2021/01/25 10:16:22;;;;;;;3.65;1.20;;;;;;;;;;5031542;28;20652;-63
2021/01/25 10:18:48;;;;;;;0.98;0.77;;;;;;;;;;5048754;28;20274;-62
2021/01/25 10:21:16;;;;;;;0.70;0.70;;;;;;;;;;5035597;28;20929;-63
2021/01/25 10:23:43;;;;;;;0.80;0.80;;;;;;;;;;5031566;28;20172;-63
2021/01/25 10:26:09;;;;;;;4.53;2.78;;;;;;;;;;5044087;28;20854;-63
2021/01/25 10:28:35;;;;;;;1.45;1.35;;;;;;;;;;5038846;28;20176;-63
2021/01/25 10:31:01;;;;;;;0.95;0.95;;;;;;;;;;5069839;23;20252;-66
2021/01/25 10:33:27;;;;;;;0.80;0.80;;;;;;;;;;5049541;28;20560;-65
2021/01/25 10:35:52;;;;;;;0.60;0.60;;;;;;;;;;5050885;28;20172;-65
2021/01/25 10:38:19;;;;;;;1.83;1.73;;;;;;;;;;5050483;28;20313;-65
2021/01/25 10:40:45;;;;;;;1.27;1.23;;;;;;;;;;5041333;28;20606;-65
2021/01/25 10:43:10;;;;;;;1.48;0.85;;;;;;;;;;5031109;28;20208;-65
2021/01/25 10:45:36;;;;;;;0.60;0.60;;;;;;;;;;5029973;28;20208;-65
2021/01/25 10:48:03;;;;;;;1.53;1.43;;;;;;;;;;5030242;28;20656;-65
2021/01/25 10:50:29;;;;;;;1.27;1.27;;;;;;;;;;5029675;28;20447;-65
2021/01/25 10:52:55;;;;;;;0.70;0.70;;;;;;;;;;5030761;28;20180;-65
2021/01/25 10:55:21;;;;;;;1.73;1.63;;;;;;;;;;5031243;28;20172;-65
2021/01/25 10:57:47;;;;;;;1.15;1.15;;;;;;;;;;5030775;28;20751;-65
2021/01/25 11:00:14;;;;;;;2.33;2.17;;;;;;;;;;5029113;28;20668;-65
2021/01/25 11:02:40;;;;;;;1.60;1.50;;;;;;;;;;5030474;28;20168;-65
2021/01/25 11:05:07;;;;;;;1.20;1.20;;;;;;;;;;5030057;28;20208;-65
2021/01/25 11:07:34;;;;;;;0.80;0.80;;;;;;;;;;5030800;28;20173;-65
2021/01/25 11:10:00;;;;;;;2.25;2.15;;;;;;;;;;5029591;28;20195;-65
2021/01/25 11:12:26;;;;;;;1.00;1.00;;;;;;;;;;5046270;28;20669;-65
2021/01/25 11:14:52;;;;;;;0.90;0.90;;;;;;;;;;5030390;28;20188;-64
2021/01/25 11:17:18;;;;;;;1.77;1.67;;;;;;;;;;5029731;28;21117;-65
2021/01/25 11:19:44;;;;;;;1.02;1.02;;;;;;;;;;5030012;28;20465;-64
2021/01/25 11:22:10;;;;;;;0.90;0.90;;;;;;;;;;5030274;28;20624;-65
2021/01/25 11:24:36;;;;;;;0.73;0.73;;;;;;;;;;5030972;28;20404;-65
2021/01/25 11:27:04;;;;;;;1.00;1.00;;;;;;;;;;5030541;28;20184;-63
2021/01/25 11:29:30;;;;;;;2.58;2.15;;;;;;;;;;5030393;28;20419;-62
2021/01/25 11:32:00;;;;;;;3.50;3.25;;;;;;;;;;5030329;28;20212;-65
2021/01/25 11:34:26;;;;;;;1.50;1.40;;;;;;;;;;5030619;28;20182;-64
2021/01/25 11:36:52;;;;;;;0.70;0.70;;;;;;;;;;5030682;28;20545;-64
2021/01/25 11:39:18;;;;;;;1.53;1.43;;;;;;;;;;5029137;28;20490;-64
2021/01/25 11:41:44;;;;;;;0.70;0.70;;;;;;;;;;5029611;28;20459;-63
2021/01/25 11:44:10;;;;;;;0.73;0.73;;;;;;;;;;5030294;28;20510;-64
2021/01/25 11:46:37;;;;;;;0.70;0.70;;;;;;;;;;5030915;28;20182;-64
2021/01/25 11:49:03;;;;;;;0.60;0.60;;;;;;;;;;5029679;28;20180;-65
2021/01/25 11:51:29;;;;;;;1.42;1.33;;;;;;;;;;5030048;28;20198;-65
2021/01/25 11:53:55;;;;;;;0.60;0.60;;;;;;;;;;5028909;28;20174;-64
2021/01/25 11:56:21;;;;;;;0.80;0.80;;;;;;;;;;5030325;28;20183;-64
2021/01/25 11:58:47;;;;;;;0.70;0.70;;;;;;;;;;5030415;28;20821;-64
2021/01/25 12:01:13;;;;;;;0.60;0.60;;;;;;;;;;5030373;28;20248;-64
2021/01/25 12:03:39;;;;;;;0.77;0.77;;;;;;;;;;5030104;28;20209;-63
2021/01/25 12:06:05;;;;;;;1.10;1.10;;;;;;;;;;5029903;28;20585;-64
2021/01/25 12:08:35;;;;;;;1.20;1.20;;;;;;;;;;5030719;28;20400;-64
2021/01/25 12:11:01;;;;;;;1.52;1.42;;;;;;;;;;5033822;28;20193;-64
2021/01/25 12:13:27;;;;;;;0.60;0.60;;;;;;;;;;5034222;28;20595;-65
2021/01/25 12:15:53;;;;;;;1.23;1.13;;;;;;;;;;5033745;28;20413;-64
2021/01/25 12:18:19;;;;;;;1.67;1.60;;;;;;;;;;5033542;28;20891;-64
2021/01/25 12:20:45;;;;;;;0.50;0.50;;;;;;;;;;5033687;28;20460;-64
2021/01/25 12:23:11;;;;;;;0.67;0.67;;;;;;;;;;5034028;28;20621;-65
2021/01/25 12:25:37;;;;;;;0.80;0.80;;;;;;;;;;5033359;28;20497;-64
2021/01/25 12:28:03;;;;;;;0.80;0.80;;;;;;;;;;5032960;28;20180;-64
2021/01/25 12:30:29;;;;;;;0.73;0.73;;;;;;;;;;5033198;28;20486;-64
2021/01/25 12:32:55;;;;;;;0.40;0.40;;;;;;;;;;5033552;28;20609;-65
2021/01/25 12:35:22;;;;;;;0.70;0.70;;;;;;;;;;5033169;28;20435;-62
2021/01/25 12:37:50;;;;;;;0.60;0.60;;;;;;;;;;5032812;28;20196;-64
2021/01/25 12:40:16;;;;;;;1.55;0.70;;;;;;;;;;5031228;28;20200;-64
2021/01/25 12:42:42;;;;;;;0.63;0.63;;;;;;;;;;5033533;28;20687;-63
2021/01/25 12:45:09;;;;;;;2.15;1.95;;;;;;;;;;5033289;28;20170;-65
2021/01/25 12:47:36;;;;;;;0.40;0.40;;;;;;;;;;5033457;28;20172;-63
2021/01/25 12:50:02;;;;;;;0.60;0.60;;;;;;;;;;5032672;28;20228;-65
2021/01/25 12:52:30;;;;;;;4.22;1.08;;;;;;;;;;5032102;28;20189;-64
2021/01/25 12:54:56;;;;;;;0.60;0.60;;;;;;;;;;5032471;28;20178;-62
2021/01/25 12:57:22;;;;;;;0.73;0.73;;;;;;;;;;5033363;28;20659;-64
2021/01/25 12:59:48;;;;;;;0.68;0.68;;;;;;;;;;5032937;28;20173;-64
2021/01/25 13:02:14;;;;;;;0.60;0.60;;;;;;;;;;5032754;28;20208;-64
2021/01/25 13:04:40;;;;;;;1.38;0.85;;;;;;;;;;5033021;28;20232;-64
2021/01/25 13:07:06;;;;;;;0.70;0.70;;;;;;;;;;5033254;28;20587;-65
2021/01/25 13:09:32;;;;;;;0.60;0.60;;;;;;;;;;5032862;28;20173;-63
2021/01/25 13:11:58;;;;;;;0.60;0.60;;;;;;;;;;5032991;28;20915;-64
2021/01/25 13:14:24;;;;;;;0.50;0.50;;;;;;;;;;5032870;28;20176;-63
2021/01/25 13:16:50;;;;;;;0.50;0.50;;;;;;;;;;5032676;28;20552;-64
2021/01/25 13:19:16;;;;;;;0.50;0.50;;;;;;;;;;5032661;28;20455;-64
2021/01/25 13:21:42;;;;;;;0.60;0.60;;;;;;;;;;5032151;28;20256;-63
2021/01/25 13:24:10;;;;;;;0.50;0.50;;;;;;;;;;5032313;28;20523;-64
2021/01/25 13:26:36;;;;;;;1.65;1.15;;;;;;;;;;5032597;28;20172;-64
2021/01/25 13:29:02;;;;;;;0.60;0.60;;;;;;;;;;5032378;28;20706;-64
2021/01/25 13:31:28;;;;;;;0.50;0.50;;;;;;;;;;5032321;28;20220;-64
2021/01/25 13:33:54;;;;;;;0.50;0.50;;;;;;;;;;5032409;28;20173;-64
2021/01/25 13:36:20;;;;;;;0.50;0.50;;;;;;;;;;5032211;28;20180;-63
2021/01/25 13:38:46;;;;;;;0.60;0.60;;;;;;;;;;5030999;28;20187;-63
2021/01/25 13:41:12;;;;;;;0.50;0.50;;;;;;;;;;5030999;28;20729;-63
2021/01/25 13:43:39;;;;;;;0.50;0.50;;;;;;;;;;5032234;28;20459;-63
2021/01/25 13:46:06;;;;;;;0.50;0.50;;;;;;;;;;5032088;28;20666;-64
2021/01/25 13:48:32;;;;;;;0.65;0.65;;;;;;;;;;5031496;28;20169;-64
2021/01/25 13:50:58;;;;;;;0.57;0.57;;;;;;;;;;5031707;28;20703;-64
2021/01/25 13:53:24;;;;;;;0.70;0.70;;;;;;;;;;5031212;28;20180;-64
2021/01/25 13:55:50;;;;;;;0.50;0.50;;;;;;;;;;5032072;28;20176;-63
2021/01/25 13:58:17;;;;;;;0.85;0.85;;;;;;;;;;5030614;28;20177;-63
2021/01/25 14:00:43;;;;;;;0.80;0.80;;;;;;;;;;5030853;28;20235;-63
2021/01/25 14:03:09;;;;;;;0.68;0.63;;;;;;;;;;5038999;28;20179;-64
2021/01/25 14:05:35;;;;;;;0.60;0.60;;;;;;;;;;5044652;28;20177;-63
2021/01/25 14:08:01;;;;;;;1.10;1.10;;;;;;;;;;5031654;28;20440;-63
2021/01/25 14:10:27;;;;;;;0.70;0.70;;;;;;;;;;5031376;28;20455;-63
2021/01/25 14:12:53;;;;;;;0.60;0.60;;;;;;;;;;5031641;28;20601;-65
2021/01/25 14:15:20;;;;;;;0.70;0.70;;;;;;;;;;5030391;28;20215;-64
2021/01/25 14:17:47;;;;;;;0.80;0.80;;;;;;;;;;5033280;28;20419;-63
2021/01/25 14:20:15;;;;;;;0.70;0.70;;;;;;;;;;5032242;28;20251;-65
2021/01/25 14:22:41;;;;;;;0.60;0.60;;;;;;;;;;5032550;28;20544;-65
2021/01/25 14:25:09;;;;;;;0.50;0.50;;;;;;;;;;5032011;28;20179;-65
2021/01/25 14:27:35;;;;;;;0.65;0.65;;;;;;;;;;5031794;28;20169;-65
2021/01/25 14:30:01;;;;;;;0.70;0.70;;;;;;;;;;5030920;28;20581;-63
2021/01/25 14:32:27;;;;;;;0.50;0.50;;;;;;;;;;5030826;28;20577;-64
2021/01/25 14:34:53;;;;;;;0.60;0.60;;;;;;;;;;5052377;28;20176;-65
2021/01/25 14:37:19;;;;;;;0.70;0.70;;;;;;;;;;5048476;28;20173;-63
2021/01/25 14:39:45;;;;;;;0.50;0.50;;;;;;;;;;5038085;28;20434;-65